Time;durP1;ratioP1;P1;durP2;ratioP2;P2;SDS_P1;SDS_P2;PMS_P1;PMS_P2;Temp;Humidity;BMP_temperature;BMP_pressure;BME280_temperature;BME280_humidity;BME280_pressure;Samples;Min_cycle;Max_cycle;Signal;HPM_P1;HPM_P2
2023/10/13 00:00:34;;;;;;;0.00;0.00;;;;;;;19.13;80.46;101183.31;5142300;27;20034;-77
2023/10/13 00:03:03;;;;;;;1.98;0.95;;;;;;;19.06;80.84;101178.25;5136700;28;20038;-80
2023/10/13 00:05:31;;;;;;;0.80;0.80;;;;;;;19.04;81.08;101172.13;5139212;28;20035;-78
2023/10/13 00:08:00;;;;;;;0.20;0.20;;;;;;;19.08;80.93;101176.38;5136274;28;20035;-79
2023/10/13 00:10:29;;;;;;;1.23;0.63;;;;;;;19.13;80.65;101178.84;5137143;27;20038;-80
2023/10/13 00:13:05;;;;;;;0.40;0.40;;;;;;;19.11;80.87;101174.50;5137637;28;20028;-78
2023/10/13 00:15:38;;;;;;;0.10;0.10;;;;;;;19.10;80.91;101172.75;5134625;28;20027;-79
2023/10/13 00:18:12;;;;;;;0.15;0.15;;;;;;;19.10;80.91;101168.22;5135031;28;20035;-76
2023/10/13 00:20:39;;;;;;;0.22;0.22;;;;;;;19.07;81.08;101163.88;5127247;27;20035;-79
2023/10/13 00:23:06;;;;;;;0.55;0.55;;;;;;;19.02;81.47;101165.94;5128783;27;20038;-78
2023/10/13 00:25:43;;;;;;;1.50;1.25;;;;;;;18.92;81.97;101164.66;5129928;27;20031;-79
2023/10/13 00:28:09;;;;;;;0.20;0.20;;;;;;;18.96;81.98;101155.50;5140137;27;20030;-78
2023/10/13 00:30:36;;;;;;;0.20;0.20;;;;;;;18.94;82.25;101156.53;5130580;27;20118;-77
2023/10/13 00:33:04;;;;;;;4.03;0.88;;;;;;;18.95;82.00;101152.91;5130689;27;20129;-78
2023/10/13 00:35:42;;;;;;;0.10;0.10;;;;;;;18.97;82.02;101151.88;5135486;27;20027;-79
2023/10/13 00:38:23;;;;;;;0.30;0.30;;;;;;;18.99;81.94;101144.63;5133128;27;20030;-78
2023/10/13 00:40:51;;;;;;;0.35;0.35;;;;;;;18.98;82.22;101148.25;5143241;27;20067;-77
2023/10/13 00:48:42;;;;;;;0.52;0.52;;;;;;;19.00;82.22;101132.91;5116948;27;20402;-79
2023/10/13 00:51:18;;;;;;;0.10;0.10;;;;;;;19.01;81.98;101129.28;5105327;28;20554;-78
2023/10/13 00:53:47;;;;;;;0.10;0.10;;;;;;;19.01;82.18;101123.91;5095944;28;20033;-78
2023/10/13 00:56:23;;;;;;;0.75;0.75;;;;;;;19.02;82.05;101122.13;5091493;28;20025;-79
2023/10/13 00:58:52;;;;;;;0.30;0.30;;;;;;;18.97;82.35;101116.97;5092619;28;20059;-79
2023/10/13 01:01:18;;;;;;;0.10;0.10;;;;;;;19.02;82.02;101120.28;5096898;28;20028;-79
2023/10/13 01:03:55;;;;;;;0.55;0.55;;;;;;;19.03;81.86;101113.97;5093773;28;20035;-79
2023/10/13 01:06:28;;;;;;;0.15;0.15;;;;;;;18.95;82.32;101105.44;5089277;28;20190;-79
2023/10/13 01:11:36;;;;;;;0.10;0.10;;;;;;;19.00;82.13;101102.53;5071768;28;20369;-78
2023/10/13 01:14:04;;;;;;;0.28;0.28;;;;;;;19.01;81.98;101086.31;5076036;28;20033;-78
2023/10/13 01:16:30;;;;;;;0.20;0.20;;;;;;;18.98;81.78;101083.81;5067927;28;20446;-79
2023/10/13 01:18:59;;;;;;;1.02;1.02;;;;;;;18.96;82.20;101085.69;5070375;28;20362;-80
2023/10/13 01:21:27;;;;;;;0.10;0.10;;;;;;;18.97;81.99;101086.59;5080985;28;20032;-79
2023/10/13 01:23:54;;;;;;;0.00;0.00;;;;;;;18.95;81.90;101083.94;5071736;28;20427;-79
2023/10/13 01:26:23;;;;;;;5.68;1.55;;;;;;;19.00;81.82;101078.34;5069359;28;20379;-78
2023/10/13 01:28:51;;;;;;;0.35;0.35;;;;;;;18.96;82.15;101076.78;5063982;28;20059;-78
2023/10/13 01:31:29;;;;;;;0.30;0.30;;;;;;;19.01;81.84;101072.03;5060716;28;20017;-78
2023/10/13 01:33:58;;;;;;;1.35;1.25;;;;;;;19.02;81.66;101071.97;5071359;28;20036;-80
2023/10/13 01:36:26;;;;;;;0.20;0.20;;;;;;;19.04;81.50;101067.38;5069944;28;20163;-77
2023/10/13 01:38:53;;;;;;;0.40;0.40;;;;;;;19.01;81.62;101064.84;5069025;28;20047;-78
2023/10/13 01:41:21;;;;;;;0.32;0.32;;;;;;;19.03;81.46;101071.00;5069657;28;20031;-79
2023/10/13 01:43:48;;;;;;;0.08;0.08;;;;;;;19.03;81.68;101059.41;5069826;28;20032;-78
2023/10/13 01:46:19;;;;;;;0.55;0.55;;;;;;;19.04;81.38;101059.31;5068964;28;20106;-79
2023/10/13 01:48:46;;;;;;;0.03;0.03;;;;;;;19.00;81.56;101057.72;5070428;28;20024;-79
2023/10/13 01:51:12;;;;;;;0.10;0.10;;;;;;;19.00;81.46;101054.19;5066731;28;20349;-80
2023/10/13 01:53:39;;;;;;;0.00;0.00;;;;;;;19.00;81.60;101055.03;5068104;28;20040;-80
2023/10/13 01:56:14;;;;;;;0.05;0.05;;;;;;;19.03;81.40;101051.34;5073380;28;20119;-79
2023/10/13 01:58:42;;;;;;;0.45;0.30;;;;;;;19.06;81.40;101043.97;5074939;28;20100;-78
2023/10/13 02:01:10;;;;;;;0.57;0.57;;;;;;;19.00;81.43;101049.69;5070758;28;20491;-79
2023/10/13 02:04:01;;;;;;;0.20;0.20;;;;;;;18.95;81.30;101037.44;5069331;28;20083;-80
2023/10/13 02:06:23;;;;;;;0.50;0.50;;;;;;;18.92;81.37;101031.28;5073619;28;20033;-80
2023/10/13 02:08:56;;;;;;;0.00;0.00;;;;;;;18.88;81.68;101028.84;5066680;28;20051;-78
2023/10/13 02:11:23;;;;;;;0.20;0.20;;;;;;;18.92;81.52;101017.00;5059525;28;20021;-79
2023/10/13 02:13:53;;;;;;;0.00;0.00;;;;;;;18.88;81.62;101010.91;5059833;28;20029;-78
2023/10/13 02:16:21;;;;;;;2.13;1.30;;;;;;;18.92;81.60;101003.59;5061373;28;20017;-79
2023/10/13 02:18:51;;;;;;;0.10;0.10;;;;;;;18.86;81.48;101004.72;5058034;28;20536;-79
2023/10/13 02:21:17;;;;;;;0.10;0.10;;;;;;;18.95;81.45;100997.19;5061721;28;20074;-79
2023/10/13 02:23:45;;;;;;;0.10;0.10;;;;;;;18.90;81.54;101000.06;5046944;28;20108;-79
2023/10/13 02:26:15;;;;;;;0.90;0.90;;;;;;;18.91;81.64;100991.09;5056888;28;20329;-79
2023/10/13 02:28:44;;;;;;;0.88;0.88;;;;;;;18.88;81.53;100993.94;5048405;28;20390;-79
2023/10/13 02:31:11;;;;;;;0.80;0.80;;;;;;;18.89;81.60;100984.91;5051163;28;20028;-79
2023/10/13 02:33:44;;;;;;;1.15;1.13;;;;;;;18.90;81.44;100989.31;5059233;28;20412;-79
2023/10/13 02:36:12;;;;;;;0.08;0.08;;;;;;;18.89;81.54;100982.22;5068663;28;20107;-80
2023/10/13 02:41:25;;;;;;;0.00;0.00;;;;;;;18.94;81.22;100964.09;5073344;28;20138;-79
2023/10/13 02:43:53;;;;;;;0.70;0.70;;;;;;;18.95;81.16;100947.03;5065748;28;20032;-80
2023/10/13 02:46:21;;;;;;;0.00;0.00;;;;;;;18.96;81.20;100947.91;5069676;28;20054;-80
2023/10/13 02:48:57;;;;;;;0.00;0.00;;;;;;;18.94;81.15;100936.38;5075955;28;20025;-76
2023/10/13 02:51:42;;;;;;;0.00;0.00;;;;;;;18.96;81.15;100929.13;5073399;28;20035;-77
2023/10/13 02:54:18;;;;;;;0.85;0.52;;;;;;;18.95;81.16;100914.81;5067351;28;20036;-77
2023/10/13 02:57:03;;;;;;;0.03;0.03;;;;;;;18.93;81.40;100914.03;5062899;28;20485;-77
2023/10/13 02:59:38;;;;;;;0.00;0.00;;;;;;;18.94;81.17;100925.63;5068941;28;20021;-79
2023/10/13 03:02:17;;;;;;;0.32;0.32;;;;;;;18.94;81.04;100926.53;5072168;28;20488;-79
2023/10/13 03:04:44;;;;;;;0.20;0.20;;;;;;;18.93;81.21;100922.09;5055726;28;20095;-79
2023/10/13 03:07:12;;;;;;;0.40;0.40;;;;;;;18.93;81.28;100930.16;5051856;28;20055;-79
2023/10/13 03:09:39;;;;;;;0.65;0.65;;;;;;;18.89;81.44;100925.84;5056678;28;20396;-78
2023/10/13 03:12:11;;;;;;;0.05;0.05;;;;;;;18.90;81.35;100919.53;5062142;28;20021;-79
2023/10/13 03:14:37;;;;;;;0.63;0.63;;;;;;;18.88;81.52;100903.50;5057942;28;20033;-77
2023/10/13 03:17:09;;;;;;;0.40;0.40;;;;;;;18.86;81.66;100909.91;5050698;28;20071;-77
2023/10/13 03:19:38;;;;;;;0.20;0.20;;;;;;;18.83;81.73;100886.78;5048476;28;20033;-79
2023/10/13 03:22:09;;;;;;;0.38;0.38;;;;;;;18.84;81.66;100871.53;5062297;28;20041;-77
2023/10/13 03:24:36;;;;;;;0.10;0.10;;;;;;;18.84;81.67;100855.44;5055267;28;20080;-78
2023/10/13 03:27:23;;;;;;;0.10;0.10;;;;;;;18.82;81.77;100850.16;5042949;28;20033;-78
2023/10/13 03:29:56;;;;;;;0.05;0.05;;;;;;;18.79;82.01;100842.28;5050390;28;20377;-78
2023/10/13 03:32:26;;;;;;;0.10;0.10;;;;;;;18.79;82.11;100846.75;5064838;28;20051;-77
2023/10/13 03:37:45;;;;;;;0.10;0.10;;;;;;;18.63;82.26;100834.19;5115284;27;20346;-79
2023/10/13 03:45:39;;;;;;;0.10;0.10;;;;;;;18.65;81.72;100813.50;5119832;27;20362;-79
2023/10/13 03:48:09;;;;;;;0.10;0.10;;;;;;;18.64;81.63;100801.03;5118353;27;20512;-79
2023/10/13 03:50:37;;;;;;;0.10;0.10;;;;;;;18.65;81.56;100797.38;5107537;28;20028;-79
2023/10/13 03:53:06;;;;;;;0.10;0.10;;;;;;;18.64;81.76;100793.00;5116056;28;20027;-79
2023/10/13 03:55:35;;;;;;;0.65;0.65;;;;;;;18.64;81.92;100795.69;5114636;28;20077;-79
2023/10/13 03:58:01;;;;;;;0.10;0.10;;;;;;;18.64;82.17;100790.31;5117344;28;20499;-78
2023/10/13 04:00:27;;;;;;;0.28;0.22;;;;;;;18.59;82.25;100787.00;5126445;28;20031;-79
2023/10/13 04:03:09;;;;;;;0.00;0.00;;;;;;;18.65;82.16;100775.06;5108061;28;20020;-78
2023/10/13 04:06:08;;;;;;;0.00;0.00;;;;;;;18.62;82.40;100770.75;5108854;28;20498;-79
2023/10/13 04:08:47;;;;;;;0.08;0.08;;;;;;;18.61;82.30;100758.25;5105258;28;20035;-79
2023/10/13 04:16:51;;;;;;;0.57;0.57;;;;;;;18.60;83.01;100756.53;5117262;28;20028;-80
2023/10/13 04:19:22;;;;;;;1.13;0.75;;;;;;;18.63;82.99;100740.28;5114016;28;20023;-79
2023/10/13 04:21:58;;;;;;;0.50;0.50;;;;;;;18.63;83.00;100751.00;5118932;28;20035;-79
2023/10/13 04:32:46;;;;;;;0.30;0.30;;;;;;;18.63;83.84;100740.28;5108683;27;20141;-79
2023/10/13 04:35:18;;;;;;;0.10;0.10;;;;;;;18.70;83.85;100730.91;5104534;28;20040;-78
2023/10/13 04:40:58;;;;;;;0.10;0.10;;;;;;;18.75;84.02;100723.50;5117575;27;20350;-80
2023/10/13 04:43:56;;;;;;;0.10;0.10;;;;;;;18.72;84.47;100718.28;5105735;28;20028;-79
2023/10/13 04:49:00;;;;;;;0.65;0.65;;;;;;;18.77;85.06;100720.72;5112260;28;20110;-79
2023/10/13 04:54:25;;;;;;;0.75;0.75;;;;;;;18.78;85.96;100718.88;5110397;28;20556;-79
2023/10/13 04:56:59;;;;;;;28.85;1.65;;;;;;;18.82;86.11;100710.56;5111905;28;20032;-78
2023/10/13 05:02:42;;;;;;;6.10;1.17;;;;;;;18.86;86.47;100706.75;5095353;28;20085;-78
2023/10/13 05:52:18;;;;;;;0.45;0.45;;;;;;;18.79;81.45;100638.28;5092611;28;20402;-80
2023/10/13 06:30:38;;;;;;;0.00;0.00;;;;;;;19.08;82.77;100574.84;5078618;28;20063;-81
2023/10/13 06:33:04;;;;;;;0.00;0.00;;;;;;;19.06;83.12;100581.25;5065640;28;20052;-81
2023/10/13 06:35:34;;;;;;;0.10;0.10;;;;;;;19.08;83.42;100568.63;5059679;28;20037;-81
2023/10/13 06:38:00;;;;;;;0.00;0.00;;;;;;;19.17;83.15;100567.19;5074737;28;20033;-81
2023/10/13 06:43:23;;;;;;;3.75;1.10;;;;;;;19.17;83.55;100561.84;5056616;28;20733;-81
2023/10/13 06:45:56;;;;;;;0.17;0.17;;;;;;;19.20;83.83;100553.56;5051043;28;20033;-81
2023/10/13 06:48:24;;;;;;;0.00;0.00;;;;;;;19.18;84.31;100547.44;5046423;28;20061;-82
2023/10/13 06:50:52;;;;;;;0.63;0.63;;;;;;;19.26;84.21;100542.47;5034256;28;20030;-82
2023/10/13 06:53:19;;;;;;;1.48;1.38;;;;;;;19.31;84.28;100536.81;5034599;28;20027;-82
2023/10/13 06:55:47;;;;;;;0.35;0.35;;;;;;;19.28;84.69;100526.25;5037728;28;20029;-83
2023/10/13 06:58:14;;;;;;;0.47;0.47;;;;;;;19.37;84.47;100523.84;5032959;28;20033;-81
2023/10/13 07:00:41;;;;;;;1.08;1.08;;;;;;;19.47;84.15;100512.53;5039921;28;20041;-80
2023/10/13 07:03:17;;;;;;;1.45;0.43;;;;;;;19.45;84.32;100503.72;5037713;28;20061;-82
2023/10/13 07:05:44;;;;;;;0.73;0.73;;;;;;;19.46;84.23;100508.97;5035701;28;20050;-81
2023/10/13 07:08:26;;;;;;;0.68;0.68;;;;;;;19.48;84.42;100516.97;5034283;28;20085;-82
2023/10/13 07:11:13;;;;;;;0.10;0.10;;;;;;;19.49;84.44;100506.13;5041500;28;20033;-82
2023/10/13 07:13:39;;;;;;;0.65;0.65;;;;;;;19.50;84.25;100494.41;5049655;28;20036;-82
2023/10/13 07:16:12;;;;;;;0.77;0.77;;;;;;;19.59;83.94;100492.97;5038587;28;20041;-82
2023/10/13 07:18:54;;;;;;;0.60;0.60;;;;;;;19.60;83.91;100521.56;5034957;28;20033;-82
2023/10/13 07:21:30;;;;;;;;;;;;;;;19.75;83.07;100489.28;5042542;28;20476;-82
2023/10/13 07:24:12;;;;;;;0.75;0.68;;;;;;;19.64;83.50;100492.66;5037789;28;19940;-82
2023/10/13 07:26:45;;;;;;;0.80;0.80;;;;;;;19.66;83.55;100521.16;5033622;28;20083;-81
2023/10/13 07:29:12;;;;;;;0.90;0.82;;;;;;;19.63;83.60;100507.91;5034586;28;20025;-82
2023/10/13 07:31:40;;;;;;;0.13;0.13;;;;;;;19.65;83.38;100518.56;5036301;28;20072;-80
2023/10/13 07:34:12;;;;;;;0.00;0.00;;;;;;;19.72;83.25;100503.78;5031863;28;20041;-82
2023/10/13 07:36:39;;;;;;;0.10;0.10;;;;;;;19.68;83.08;100496.88;5034875;28;20124;-81
2023/10/13 07:39:23;;;;;;;3.00;1.67;;;;;;;19.75;83.03;100502.72;5035966;28;20069;-83
2023/10/13 07:41:54;;;;;;;0.10;0.10;;;;;;;19.77;83.07;100508.88;5036649;28;20044;-82
2023/10/13 07:44:24;;;;;;;0.45;0.45;;;;;;;19.74;82.98;100509.94;5035338;28;20373;-83
2023/10/13 07:46:58;;;;;;;0.35;0.35;;;;;;;19.77;82.96;100506.19;5038599;28;20045;-82
2023/10/13 07:49:30;;;;;;;1.90;1.48;;;;;;;19.75;82.50;100498.22;5037877;28;20495;-82
2023/10/13 07:52:01;;;;;;;0.20;0.20;;;;;;;19.80;82.12;100495.22;5039783;28;20029;-82
2023/10/13 07:54:29;;;;;;;0.85;0.40;;;;;;;19.84;82.07;100507.56;5023882;28;20091;-82
2023/10/13 07:56:55;;;;;;;1.00;1.00;;;;;;;19.82;81.65;100496.00;5025574;28;20022;-82
2023/10/13 07:59:23;;;;;;;1.02;0.98;;;;;;;19.86;81.26;100489.47;5016301;28;20041;-82
2023/10/13 08:02:12;;;;;;;0.00;0.00;;;;;;;19.91;80.58;100481.13;5015245;28;20040;-84
2023/10/13 08:04:36;;;;;;;0.00;0.00;;;;;;;19.89;79.86;100483.94;5018054;28;20517;-81
2023/10/13 08:07:12;;;;;;;1.17;1.15;;;;;;;19.94;79.56;100481.78;5019322;28;20030;-82
2023/10/13 08:09:40;;;;;;;0.55;0.30;;;;;;;19.98;79.45;100482.47;5016617;28;20030;-81
2023/10/13 08:12:11;;;;;;;0.68;0.55;;;;;;;20.04;79.44;100485.59;5017017;28;20041;-81
2023/10/13 08:14:40;;;;;;;0.52;0.52;;;;;;;20.10;79.14;100470.00;5021581;28;20025;-83
2023/10/13 08:17:10;;;;;;;0.20;0.20;;;;;;;20.14;79.08;100466.19;5018211;28;20515;-81
2023/10/13 08:19:51;;;;;;;0.03;0.03;;;;;;;20.23;78.83;100476.31;5017586;28;20029;-82
2023/10/13 08:25:20;;;;;;;0.32;0.32;;;;;;;20.23;78.53;100460.19;5107923;27;19938;-81
2023/10/13 08:27:49;;;;;;;0.73;0.73;;;;;;;20.32;78.35;100469.47;5093771;28;20048;-82
2023/10/13 08:30:31;;;;;;;0.20;0.20;;;;;;;20.37;78.08;100451.16;5088649;28;20024;-81
2023/10/13 08:32:58;;;;;;;0.10;0.10;;;;;;;20.27;77.26;100455.47;5087589;28;20025;-82
2023/10/13 08:35:54;;;;;;;3.10;0.45;;;;;;;20.23;76.97;100444.03;5079176;28;20685;-82
2023/10/13 08:38:15;;;;;;;0.10;0.10;;;;;;;20.33;77.17;100438.91;5080746;28;20127;-82
2023/10/13 08:41:53;;;;;;;2.55;0.95;;;;;;;20.31;76.43;100435.44;5078738;28;20054;-82
2023/10/13 08:43:44;;;;;;;0.17;0.17;;;;;;;20.32;76.66;100447.94;5079365;28;20050;-82
2023/10/13 08:46:26;;;;;;;0.30;0.30;;;;;;;20.20;75.97;100442.41;5092994;28;20111;-79
2023/10/13 08:49:29;;;;;;;0.32;0.32;;;;;;;20.29;76.04;100446.31;5094936;28;20024;-80
2023/10/13 08:51:44;;;;;;;0.10;0.10;;;;;;;20.26;75.56;100443.84;5091707;28;20052;-81
2023/10/13 08:54:19;;;;;;;0.20;0.20;;;;;;;20.30;75.24;100445.34;5091945;28;20023;-81
2023/10/13 08:56:55;;;;;;;0.52;0.52;;;;;;;20.29;75.41;100432.88;5088298;28;20063;-81
2023/10/13 08:59:33;;;;;;;1.60;0.68;;;;;;;20.34;75.08;100428.03;5080335;28;20089;-80
2023/10/13 09:02:15;;;;;;;1.65;0.52;;;;;;;20.34;74.49;100430.72;5082508;28;20043;-81
2023/10/13 09:04:44;;;;;;;;;;;;;;;20.44;73.72;100435.50;5086155;28;20029;-81
2023/10/13 09:07:15;;;;;;;0.40;0.40;;;;;;;20.35;74.06;100429.75;5082736;28;19912;-81
2023/10/13 09:12:20;;;;;;;0.43;0.43;;;;;;;20.44;73.30;100419.34;5054792;28;20384;-80
2023/10/13 09:14:58;;;;;;;0.80;0.75;;;;;;;20.56;73.16;100415.81;5037534;28;20026;-81
2023/10/13 09:20:32;;;;;;;12.50;1.05;;;;;;;20.64;73.06;100418.81;5102094;27;20437;-82
2023/10/13 09:26:13;;;;;;;0.10;0.10;;;;;;;20.63;72.40;100398.25;5108205;27;20399;-82
2023/10/13 09:28:31;;;;;;;0.10;0.10;;;;;;;20.68;72.19;100392.56;5091138;28;20043;-83
2023/10/13 09:30:57;;;;;;;0.98;0.75;;;;;;;20.73;72.31;100408.44;5091312;28;20462;-83
2023/10/13 09:33:32;;;;;;;0.65;0.65;;;;;;;20.76;72.49;100397.44;5093703;28;20028;-83
2023/10/13 09:35:59;;;;;;;0.30;0.30;;;;;;;20.79;72.53;100389.16;5087800;28;20085;-83
2023/10/13 09:38:27;;;;;;;2.67;1.70;;;;;;;20.75;71.95;100390.31;5092652;28;20028;-83
2023/10/13 09:40:57;;;;;;;0.40;0.17;;;;;;;20.80;71.69;100374.72;5094045;28;20032;-83
2023/10/13 09:43:25;;;;;;;0.40;0.40;;;;;;;20.88;71.60;100368.78;5091838;28;20028;-83
2023/10/13 09:46:06;;;;;;;0.55;0.55;;;;;;;20.91;71.50;100364.06;5091753;28;20118;-83
2023/10/13 09:48:46;;;;;;;0.10;0.10;;;;;;;21.01;70.72;100364.25;5089108;28;20024;-83
2023/10/13 09:51:19;;;;;;;0.13;0.13;;;;;;;21.03;70.33;100366.84;5087703;28;20024;-81
2023/10/13 09:53:58;;;;;;;0.10;0.10;;;;;;;21.01;69.67;100364.25;5096775;28;20029;-82
2023/10/13 09:56:32;;;;;;;1.05;0.95;;;;;;;21.06;69.98;100366.59;5087852;28;20384;-84
2023/10/13 10:01:50;;;;;;;0.57;0.57;;;;;;;21.09;69.16;100351.09;5115134;27;20365;-83
2023/10/13 10:04:19;;;;;;;3.20;0.75;;;;;;;21.15;69.81;100349.78;5098946;28;20032;-82
2023/10/13 10:07:00;;;;;;;0.65;0.65;;;;;;;21.27;69.49;100343.50;5101288;28;20058;-82
2023/10/13 10:12:47;;;;;;;12.80;1.13;;;;;;;21.43;68.59;100345.06;5059356;28;20416;-83
2023/10/13 10:15:35;;;;;;;0.22;0.22;;;;;;;21.52;66.39;100341.72;5058265;28;20064;-83
2023/10/13 10:18:02;;;;;;;0.50;0.50;;;;;;;21.64;66.77;100337.25;5062288;28;20032;-83
2023/10/13 10:20:39;;;;;;;0.30;0.30;;;;;;;21.77;66.50;100334.50;5056896;28;20022;-84
2023/10/13 10:23:09;;;;;;;0.50;0.50;;;;;;;21.81;66.08;100334.16;5056394;28;20031;-83
2023/10/13 10:25:37;;;;;;;0.68;0.68;;;;;;;21.91;66.22;100320.84;5038368;28;20036;-84
2023/10/13 10:28:05;;;;;;;0.75;0.75;;;;;;;21.88;65.29;100345.34;5045581;28;20048;-81
2023/10/13 10:30:38;;;;;;;0.40;0.38;;;;;;;21.93;65.37;100340.47;5051014;28;20025;-82
2023/10/13 10:33:11;;;;;;;0.10;0.10;;;;;;;21.96;65.44;100328.59;5053982;28;20063;-82
2023/10/13 10:35:42;;;;;;;1.13;1.08;;;;;;;22.01;64.78;100331.78;5051391;28;20032;-84
2023/10/13 10:48:56;;;;;;;0.57;0.57;;;;;;;22.06;64.73;100308.00;5057357;28;20392;-80
2023/10/13 10:51:22;;;;;;;0.00;0.00;;;;;;;22.09;64.30;100323.09;5052880;28;20045;-84
2023/10/13 10:53:51;;;;;;;0.00;0.00;;;;;;;22.10;64.02;100303.25;5053392;28;20025;-80
2023/10/13 10:56:24;;;;;;;0.68;0.43;;;;;;;22.16;63.77;100308.16;5054625;28;20536;-79
2023/10/13 10:58:55;;;;;;;2.20;1.23;;;;;;;22.28;63.81;100296.41;5058188;28;20057;-79
2023/10/13 11:01:23;;;;;;;0.05;0.05;;;;;;;22.25;63.32;100275.06;5060139;28;20033;-79
2023/10/13 11:04:08;;;;;;;6.13;1.23;;;;;;;22.33;62.99;100270.91;5059710;28;20035;-78
2023/10/13 11:06:45;;;;;;;0.20;0.20;;;;;;;22.35;62.56;100274.34;5059806;28;20100;-78
2023/10/13 11:09:31;;;;;;;0.90;0.57;;;;;;;22.27;61.85;100270.41;5058732;28;20029;-79
2023/10/13 11:14:40;;;;;;;0.57;0.30;;;;;;;22.37;61.27;100245.38;5116928;27;1174281;-82
2023/10/13 11:17:18;;;;;;;1.38;1.27;;;;;;;22.56;61.41;100256.47;5134157;27;20030;-81
2023/10/13 11:19:44;;;;;;;0.80;0.80;;;;;;;22.66;60.10;100253.03;5122248;27;20031;-81
2023/10/13 11:22:32;;;;;;;0.55;0.55;;;;;;;22.77;59.32;100220.63;5108535;28;20473;-82
2023/10/13 11:25:01;;;;;;;0.60;0.32;;;;;;;23.04;60.12;100249.03;5116253;28;20033;-81
2023/10/13 11:28:06;;;;;;;2.28;1.83;;;;;;;23.10;58.93;100237.72;5131505;28;20970;-81
2023/10/13 11:30:20;;;;;;;0.10;0.10;;;;;;;23.13;58.04;100240.19;5102290;28;20512;-81
2023/10/13 11:38:42;;;;;;;0.10;0.10;;;;;;;23.05;58.02;100239.97;5095050;27;20743;-81
2023/10/13 11:41:12;;;;;;;2.00;1.75;;;;;;;22.89;57.33;100245.75;5095196;28;20028;-81
2023/10/13 11:48:56;;;;;;;0.80;0.38;;;;;;;22.85;57.01;100245.16;5097914;27;20432;-81
2023/10/13 11:51:32;;;;;;;0.68;0.68;;;;;;;22.79;57.15;100242.94;5094646;28;20130;-81
2023/10/13 11:53:58;;;;;;;5.28;1.13;;;;;;;22.84;57.32;100251.56;5091181;28;20028;-81
2023/10/13 11:56:26;;;;;;;0.68;0.68;;;;;;;22.96;56.98;100246.13;5091123;28;20059;-81
2023/10/13 11:58:52;;;;;;;0.95;0.95;;;;;;;22.85;57.21;100255.94;5094187;28;20032;-81
2023/10/13 12:07:02;;;;;;;0.13;0.13;;;;;;;22.81;56.66;100246.38;5095492;28;20036;-82
2023/10/13 12:12:07;;;;;;;2.05;1.85;;;;;;;22.99;56.35;100224.25;5027464;28;20166;-80
2023/10/13 12:14:37;;;;;;;0.30;0.30;;;;;;;23.12;56.02;100234.94;5014839;28;20060;-81
2023/10/13 12:17:04;;;;;;;0.32;0.32;;;;;;;23.08;56.25;100251.38;5009599;28;20030;-81
2023/10/13 12:19:31;;;;;;;0.35;0.35;;;;;;;22.92;55.57;100232.88;5010569;28;20086;-80
2023/10/13 12:22:04;;;;;;;0.05;0.05;;;;;;;23.07;56.16;100224.50;5000868;28;20026;-81
2023/10/13 12:30:07;;;;;;;1.48;1.10;;;;;;;22.87;56.69;100232.38;5086755;28;20044;-81
2023/10/13 12:32:34;;;;;;;0.30;0.30;;;;;;;22.84;56.99;100221.84;5096254;28;20067;-79
2023/10/13 12:54:06;;;;;;;0.77;0.77;;;;;;;22.62;60.26;100223.56;5069050;27;20460;-81
2023/10/13 12:56:32;;;;;;;0.40;0.40;;;;;;;22.56;60.09;100224.06;5067928;28;20025;-81
2023/10/13 12:58:58;;;;;;;0.00;0.00;;;;;;;22.56;60.01;100215.13;5068194;28;20501;-81
2023/10/13 13:01:32;;;;;;;1.23;0.60;;;;;;;22.41;60.03;100215.34;5056924;28;20021;-81
2023/10/13 13:03:59;;;;;;;1.95;1.77;;;;;;;22.40;61.55;100197.44;5054304;28;20023;-81
2023/10/13 13:06:29;;;;;;;0.82;0.82;;;;;;;22.38;61.32;100204.81;5053894;27;20799;-80
2023/10/13 13:08:57;;;;;;;0.10;0.10;;;;;;;22.37;61.36;100207.59;5074844;27;20027;-80
2023/10/13 13:11:24;;;;;;;0.88;0.65;;;;;;;22.40;61.51;100202.00;5074674;27;20059;-81
2023/10/13 13:13:51;;;;;;;2.10;0.43;;;;;;;22.32;61.70;100205.28;5109646;27;20023;-81
2023/10/13 13:16:19;;;;;;;0.85;0.55;;;;;;;22.24;62.01;100205.03;5060065;27;20043;-81
2023/10/13 13:18:46;;;;;;;1.13;1.13;;;;;;;22.15;61.69;100206.63;5065826;28;20457;-81
2023/10/13 13:21:13;;;;;;;0.10;0.10;;;;;;;22.27;61.68;100218.28;5065071;28;20024;-81
2023/10/13 13:23:40;;;;;;;0.43;0.43;;;;;;;22.12;61.21;100193.38;5070837;27;20032;-80
2023/10/13 13:26:15;;;;;;;0.10;0.10;;;;;;;22.12;61.44;100198.78;5080557;27;20024;-80
2023/10/13 13:28:42;;;;;;;3.85;1.75;;;;;;;22.22;61.16;100180.88;5060184;28;20528;-80
2023/10/13 13:31:08;;;;;;;0.43;0.35;;;;;;;22.24;61.46;100184.31;5061057;28;20397;-81
2023/10/13 13:33:38;;;;;;;0.73;0.20;;;;;;;22.23;61.25;100188.00;5070461;28;20033;-81
2023/10/13 13:36:06;;;;;;;1.17;1.10;;;;;;;22.27;61.48;100202.94;5066399;28;20084;-81
2023/10/13 13:38:33;;;;;;;0.75;0.75;;;;;;;22.22;61.26;100183.56;5064635;28;20047;-81
2023/10/13 13:41:02;;;;;;;1.88;1.40;;;;;;;22.36;61.21;100190.56;5074232;27;20029;-80
2023/10/13 13:43:37;;;;;;;0.60;0.45;;;;;;;22.32;61.42;100199.00;5067017;27;20449;-81
2023/10/13 13:46:08;;;;;;;16.15;1.30;;;;;;;22.19;61.74;100209.94;5068092;28;20032;-82
2023/10/13 13:48:35;;;;;;;0.30;0.30;;;;;;;22.22;62.79;100215.94;5069821;28;20120;-81
2023/10/13 13:51:14;;;;;;;0.82;0.70;;;;;;;22.01;64.67;100250.88;5072196;28;20021;-83
2023/10/13 13:53:44;;;;;;;5.13;1.85;;;;;;;21.55;67.74;100209.41;5068172;28;20028;-82
2023/10/13 13:56:15;;;;;;;0.10;0.10;;;;;;;21.19;68.92;100237.28;5063020;28;20100;-82
2023/10/13 13:58:43;;;;;;;1.08;1.00;;;;;;;20.98;70.73;100252.22;5064249;28;20561;-83
2023/10/13 14:01:12;;;;;;;0.85;0.85;;;;;;;20.76;71.89;100266.41;5063102;28;20036;-82
2023/10/13 14:03:45;;;;;;;1.38;1.30;;;;;;;20.62;73.33;100264.66;5061767;27;20052;-84
2023/10/13 14:08:54;;;;;;;0.22;0.22;;;;;;;20.20;76.78;100272.13;5051734;28;20380;-80
2023/10/13 14:11:22;;;;;;;0.93;0.85;;;;;;;20.11;78.01;100279.00;5023677;28;20026;-81
2023/10/13 14:13:49;;;;;;;0.00;0.00;;;;;;;19.99;78.77;100286.06;5032610;28;20041;-80
2023/10/13 14:16:18;;;;;;;0.00;0.00;;;;;;;19.95;79.54;100284.56;5026647;28;20179;-80
2023/10/13 14:21:24;;;;;;;0.10;0.10;;;;;;;19.90;79.96;100258.94;5072179;27;1941011;-82
2023/10/13 14:23:53;;;;;;;1.13;1.13;;;;;;;19.79;81.35;100256.94;5131835;27;20027;-81
2023/10/13 14:26:21;;;;;;;0.10;0.10;;;;;;;19.85;81.11;100270.00;5133327;27;20031;-81
2023/10/13 14:29:07;;;;;;;3.95;1.65;;;;;;;19.88;80.95;100277.88;5133412;27;20024;-81
2023/10/13 14:31:36;;;;;;;0.10;0.10;;;;;;;19.80;81.78;100283.75;5137257;27;20034;-81
2023/10/13 14:34:03;;;;;;;0.10;0.10;;;;;;;19.80;81.85;100278.38;5134764;27;20029;-81
2023/10/13 14:36:34;;;;;;;1.98;1.85;;;;;;;19.61;82.75;100267.97;5134409;27;20049;-79
2023/10/13 14:39:01;;;;;;;0.10;0.10;;;;;;;19.81;82.14;100268.47;5131331;27;20031;-80
2023/10/13 14:41:27;;;;;;;0.45;0.45;;;;;;;19.84;81.68;100266.47;5150147;27;20018;-81
2023/10/13 14:43:56;;;;;;;0.32;0.32;;;;;;;19.71;82.66;100269.09;5141336;27;20028;-82
2023/10/13 14:46:22;;;;;;;0.10;0.10;;;;;;;19.81;82.27;100271.16;5138229;27;20035;-81
2023/10/13 14:48:52;;;;;;;0.10;0.10;;;;;;;19.88;82.00;100283.25;5135606;27;20368;-81
2023/10/13 14:51:19;;;;;;;1.77;1.65;;;;;;;19.93;81.69;100254.22;5147722;27;20023;-80
2023/10/13 14:53:46;;;;;;;0.20;0.20;;;;;;;19.82;82.41;100276.41;5145235;27;20031;-81
2023/10/13 14:56:13;;;;;;;1.52;0.75;;;;;;;19.91;81.99;100242.69;5137484;27;20517;-79
2023/10/13 14:58:42;;;;;;;0.77;0.77;;;;;;;19.85;82.46;100257.44;5132020;27;20050;-80
2023/10/13 15:01:15;;;;;;;0.10;0.10;;;;;;;19.93;82.27;100258.75;5130201;27;20026;-80
2023/10/13 15:03:43;;;;;;;0.03;0.03;;;;;;;19.92;82.16;100247.13;5139641;27;20038;-80
2023/10/13 15:06:20;;;;;;;0.40;0.40;;;;;;;19.99;82.11;100245.72;5135001;27;20403;-80
2023/10/13 15:08:47;;;;;;;0.55;0.38;;;;;;;19.94;81.97;100237.13;5146472;27;20031;-82
2023/10/13 15:11:18;;;;;;;0.73;0.73;;;;;;;19.98;82.00;100219.81;5136260;27;20507;-82
2023/10/13 15:13:44;;;;;;;0.73;0.47;;;;;;;19.97;82.09;100234.22;5133206;27;20035;-80